Time;durP1;ratioP1;P1;durP2;ratioP2;P2;SDS_P1;SDS_P2;PMS_P1;PMS_P2;Temp;Humidity;BMP_temperature;BMP_pressure;BME280_temperature;BME280_humidity;BME280_pressure;Samples;Min_cycle;Max_cycle;Signal;HPM_P1;HPM_P2
2023/05/08 00:01:45;;;;;;;2.50;2.30;;;;;;;16.39;79.96;95643.53;4343054;32;20193;-60
2023/05/08 00:04:10;;;;;;;2.43;2.30;;;;;;;16.47;79.50;95648.06;4343995;32;20239;-59
2023/05/08 00:06:35;;;;;;;2.43;2.23;;;;;;;16.35;79.89;95647.97;4339582;32;20185;-59
2023/05/08 00:09:01;;;;;;;2.20;2.10;;;;;;;16.39;79.19;95650.78;4357316;32;20255;-59
2023/05/08 00:11:26;;;;;;;5.07;2.63;;;;;;;16.37;79.45;95655.69;4361425;32;20232;-59
2023/05/08 00:13:52;;;;;;;1.60;1.60;;;;;;;16.46;79.27;95654.53;4345389;32;20185;-59
2023/05/08 00:16:17;;;;;;;2.17;2.03;;;;;;;16.56;78.99;95655.28;4357013;32;20219;-59
2023/05/08 00:18:43;;;;;;;2.47;2.37;;;;;;;16.51;79.32;95658.91;4365295;32;20211;-59
2023/05/08 00:21:08;;;;;;;1.63;1.63;;;;;;;16.49;79.59;95653.88;4362118;32;20231;-58
2023/05/08 00:23:33;;;;;;;2.60;2.43;;;;;;;16.49;79.68;95650.41;4356562;32;20204;-59
2023/05/08 00:25:59;;;;;;;2.20;2.10;;;;;;;16.43;79.86;95659.72;4362711;32;20189;-60
2023/05/08 00:28:24;;;;;;;2.30;2.20;;;;;;;16.42;79.63;95666.19;4343485;32;20249;-59
2023/05/08 00:30:49;;;;;;;2.60;2.47;;;;;;;16.38;79.49;95662.59;4344595;32;20276;-59
2023/05/08 00:33:15;;;;;;;2.27;2.17;;;;;;;16.18;79.54;95668.66;4359614;32;20184;-60
2023/05/08 00:35:41;;;;;;;2.57;2.37;;;;;;;16.22;79.45;95678.41;4360894;32;20250;-58
2023/05/08 00:38:07;;;;;;;3.67;3.37;;;;;;;16.20;79.40;95672.59;4335915;32;20239;-59
2023/05/08 00:40:34;;;;;;;2.27;2.17;;;;;;;16.13;79.55;95666.94;4339999;32;20251;-59
2023/05/08 00:42:59;;;;;;;2.93;2.73;;;;;;;16.13;79.68;95662.38;4357036;32;20203;-59
2023/05/08 00:45:33;;;;;;;1.37;1.37;;;;;;;16.18;79.74;95664.09;4352712;32;20245;-59
2023/05/08 00:47:59;;;;;;;2.57;2.40;;;;;;;16.25;79.13;95664.37;4355431;32;20233;-59
2023/05/08 00:50:24;;;;;;;2.93;2.63;;;;;;;16.39;78.62;95667.66;4361977;32;20177;-59
2023/05/08 00:52:50;;;;;;;2.93;2.73;;;;;;;16.21;79.22;95663.44;4345982;32;20204;-59
2023/05/08 00:55:16;;;;;;;2.47;2.30;;;;;;;16.22;78.86;95665.00;4338224;32;20193;-59
2023/05/08 00:57:42;;;;;;;2.47;2.37;;;;;;;16.03;79.55;95661.91;4349957;32;20347;-59
2023/05/08 01:00:08;;;;;;;2.07;1.97;;;;;;;16.05;79.82;95662.38;4358161;32;20248;-59
2023/05/08 01:02:34;;;;;;;3.00;2.80;;;;;;;16.12;79.73;95654.66;4326837;32;20177;-59
2023/05/08 01:05:03;;;;;;;3.90;3.57;;;;;;;16.19;79.47;95656.84;4341285;32;20203;-59
2023/05/08 01:07:28;;;;;;;2.80;2.57;;;;;;;16.13;79.72;95657.03;4355726;32;20211;-58
2023/05/08 01:09:53;;;;;;;3.73;3.40;;;;;;;16.14;79.55;95663.16;4353863;32;20261;-59
2023/05/08 01:12:37;;;;;;;2.43;2.33;;;;;;;16.12;79.41;95660.03;4329199;32;20244;-59
2023/05/08 01:15:26;;;;;;;2.20;2.10;;;;;;;15.95;80.19;95666.22;4329463;32;20209;-58
2023/05/08 01:18:03;;;;;;;2.87;2.67;;;;;;;16.03;79.86;95668.06;4343226;32;20245;-59
2023/05/08 01:20:45;;;;;;;2.63;2.53;;;;;;;16.08;79.43;95667.09;4350748;32;20286;-58
2023/05/08 01:23:29;;;;;;;3.50;3.30;;;;;;;16.03;79.96;95675.31;4361429;32;20196;-59
2023/05/08 01:25:57;;;;;;;3.23;2.93;;;;;;;16.10;79.50;95675.59;4320134;32;20204;-59
2023/05/08 01:28:41;;;;;;;3.93;3.17;;;;;;;16.12;79.56;95676.06;4335720;32;20193;-59
2023/05/08 01:31:23;;;;;;;2.73;2.53;;;;;;;16.04;79.85;95669.63;4347094;32;20339;-59
2023/05/08 01:33:55;;;;;;;3.53;3.20;;;;;;;15.98;80.23;95676.28;4330184;32;20189;-59
2023/05/08 01:36:35;;;;;;;3.50;3.20;;;;;;;16.07;80.05;95678.91;4353152;32;20217;-59
2023/05/08 01:39:28;;;;;;;2.63;2.43;;;;;;;15.98;80.20;95675.50;4357345;32;20193;-61
2023/05/08 01:42:29;;;;;;;4.00;2.97;;;;;;;15.96;80.23;95691.06;4342771;32;20213;-59
2023/05/08 01:45:00;;;;;;;3.13;2.93;;;;;;;16.04;79.98;95695.59;4326483;32;20240;-59
2023/05/08 01:47:29;;;;;;;3.47;2.67;;;;;;;16.03;79.92;95696.72;4355744;32;20224;-59
2023/05/08 01:50:04;;;;;;;3.27;3.07;;;;;;;15.96;80.12;95693.75;4345650;32;20271;-59
2023/05/08 01:52:41;;;;;;;2.87;2.73;;;;;;;15.94;80.22;95694.06;4339330;32;20302;-59
2023/05/08 01:55:23;;;;;;;3.70;3.23;;;;;;;15.80;80.61;95698.78;4337248;32;20200;-59
2023/05/08 01:57:52;;;;;;;3.90;3.60;;;;;;;15.69;81.10;95703.69;4312934;32;20209;-59
2023/05/08 02:00:21;;;;;;;6.03;4.27;;;;;;;15.46;81.19;95696.91;4344212;32;20204;-59
2023/05/08 02:02:48;;;;;;;3.50;3.20;;;;;;;15.45;81.55;95701.47;4329745;32;20198;-59
2023/05/08 02:05:14;;;;;;;3.70;3.40;;;;;;;15.43;81.53;95701.00;4339054;32;20238;-58
2023/05/08 02:07:42;;;;;;;3.83;3.63;;;;;;;15.42;80.84;95696.75;4337959;32;20193;-59
2023/05/08 02:10:10;;;;;;;2.60;2.50;;;;;;;15.29;81.69;95696.91;4347640;32;20193;-59
2023/05/08 02:12:36;;;;;;;2.83;2.73;;;;;;;15.24;81.66;95699.72;4336789;32;20300;-58
2023/05/08 02:15:04;;;;;;;4.07;3.47;;;;;;;15.27;81.85;95707.12;4333715;32;20224;-59
2023/05/08 02:17:32;;;;;;;4.20;3.90;;;;;;;15.18;81.89;95712.44;4329427;32;20225;-59
2023/05/08 02:19:59;;;;;;;3.43;3.13;;;;;;;15.14;82.01;95716.84;4345947;32;20189;-59
2023/05/08 02:22:26;;;;;;;3.23;3.03;;;;;;;15.20;81.90;95709.47;4347761;32;20211;-59
2023/05/08 02:24:57;;;;;;;10.13;2.93;;;;;;;15.09;82.25;95706.31;4345583;32;20193;-59
2023/05/08 02:27:25;;;;;;;2.43;2.33;;;;;;;15.03;82.83;95712.91;4354595;32;20195;-59
2023/05/08 02:29:54;;;;;;;2.80;2.60;;;;;;;15.16;81.79;95708.53;4327793;32;20194;-59
2023/05/08 02:32:20;;;;;;;4.50;3.30;;;;;;;15.08;81.90;95710.06;4320216;33;20324;-59
2023/05/08 02:34:48;;;;;;;3.53;3.33;;;;;;;15.06;81.93;95704.25;4342791;32;20193;-59
2023/05/08 02:37:16;;;;;;;4.13;3.83;;;;;;;15.15;81.73;95704.28;4353669;32;20257;-59
2023/05/08 02:39:47;;;;;;;3.07;2.97;;;;;;;15.05;81.56;95702.69;4336713;32;20201;-59
2023/05/08 02:42:14;;;;;;;4.03;3.70;;;;;;;15.06;81.70;95710.37;4333318;32;20228;-59
2023/05/08 02:44:40;;;;;;;3.20;3.00;;;;;;;15.17;81.52;95710.09;4333216;32;20201;-59
2023/05/08 02:47:26;;;;;;;2.83;2.67;;;;;;;15.19;81.74;95713.22;4335295;32;20259;-58
2023/05/08 02:50:15;;;;;;;2.47;2.37;;;;;;;15.19;81.77;95723.91;4355301;32;20200;-59
2023/05/08 02:52:52;;;;;;;3.07;2.87;;;;;;;15.16;82.36;95719.22;4341812;32;20193;-59
2023/05/08 02:55:48;;;;;;;3.13;2.93;;;;;;;15.14;82.33;95714.19;4333457;32;20262;-60
2023/05/08 02:58:22;;;;;;;2.97;2.77;;;;;;;15.06;82.75;95721.06;4342776;32;20226;-59
2023/05/08 03:00:59;;;;;;;3.00;2.80;;;;;;;15.11;82.71;95720.16;4326119;32;20197;-59
2023/05/08 03:03:36;;;;;;;3.53;3.23;;;;;;;15.11;82.52;95712.91;4342911;32;20232;-59
2023/05/08 03:06:06;;;;;;;2.60;2.50;;;;;;;15.01;82.58;95718.53;4328479;32;20215;-59
2023/05/08 03:08:34;;;;;;;3.87;3.67;;;;;;;14.75;83.56;95713.16;4335880;32;20310;-59
2023/05/08 03:11:07;;;;;;;2.87;2.70;;;;;;;14.72;83.46;95715.66;4333601;32;20233;-59
2023/05/08 03:13:34;;;;;;;2.97;2.77;;;;;;;14.66;83.61;95714.22;4345826;32;20267;-59
2023/05/08 03:16:05;;;;;;;2.93;2.83;;;;;;;14.63;84.07;95720.16;4340884;32;20224;-59
2023/05/08 03:18:55;;;;;;;4.10;2.63;;;;;;;14.67;83.95;95713.91;4333929;33;20205;-59
2023/05/08 03:21:27;;;;;;;2.67;2.57;;;;;;;14.69;84.15;95726.94;4315297;33;20208;-60
2023/05/08 03:23:53;;;;;;;2.10;2.00;;;;;;;14.66;84.52;95722.22;4306466;33;20202;-59
2023/05/08 03:26:20;;;;;;;2.03;1.93;;;;;;;14.49;84.91;95730.16;4314444;33;20283;-59
2023/05/08 03:28:49;;;;;;;3.67;3.37;;;;;;;14.22;85.47;95723.88;4331094;33;20185;-63
2023/05/08 03:31:20;;;;;;;2.97;2.87;;;;;;;14.24;85.66;95728.91;4343030;32;20201;-59
2023/05/08 03:33:46;;;;;;;2.50;2.30;;;;;;;14.31;85.04;95727.38;4324357;32;20263;-63
2023/05/08 03:36:13;;;;;;;4.63;3.10;;;;;;;14.35;84.43;95739.00;4310551;32;20193;-59
2023/05/08 03:38:39;;;;;;;2.13;2.03;;;;;;;14.22;84.74;95731.09;4333944;32;20185;-59
2023/05/08 03:41:05;;;;;;;3.03;2.87;;;;;;;14.26;84.27;95732.84;4336914;32;20265;-59
2023/05/08 03:43:31;;;;;;;2.60;2.50;;;;;;;14.09;84.63;95730.88;4316435;33;20211;-59
2023/05/08 03:45:58;;;;;;;2.17;2.10;;;;;;;13.99;85.21;95731.13;4323131;32;20279;-59
2023/05/08 03:48:24;;;;;;;2.37;2.17;;;;;;;14.06;85.46;95734.16;4337077;32;20208;-59
2023/05/08 03:50:50;;;;;;;3.57;3.27;;;;;;;14.10;85.23;95731.66;4333886;32;20239;-59
2023/05/08 03:53:15;;;;;;;10.50;2.03;;;;;;;14.03;85.38;95729.44;4348145;32;20201;-61
2023/05/08 03:55:41;;;;;;;1.73;1.63;;;;;;;14.18;84.89;95735.47;4348732;32;20211;-59
2023/05/08 03:58:43;;;;;;;2.10;2.00;;;;;;;14.29;84.43;95739.47;4296376;33;20411;-59
2023/05/08 04:01:26;;;;;;;2.70;2.50;;;;;;;14.15;85.20;95742.19;4318723;32;20188;-59
2023/05/08 04:04:04;;;;;;;3.47;3.27;;;;;;;14.15;84.95;95747.53;4336939;32;20201;-59
2023/05/08 04:06:53;;;;;;;2.30;2.20;;;;;;;14.12;85.06;95750.03;4342923;32;20302;-59
2023/05/08 04:09:40;;;;;;;1.90;1.80;;;;;;;13.99;85.10;95741.00;4339098;32;20186;-59
2023/05/08 04:12:14;;;;;;;2.40;2.20;;;;;;;13.94;85.43;95749.13;4323911;32;20358;-59
2023/05/08 04:14:52;;;;;;;2.17;2.07;;;;;;;13.85;85.70;95751.75;4346538;32;20188;-59
2023/05/08 04:17:43;;;;;;;2.83;2.70;;;;;;;13.85;85.64;95756.28;4341456;32;20188;-59
2023/05/08 04:20:15;;;;;;;2.97;2.77;;;;;;;13.74;85.71;95751.19;4356113;32;20240;-59
2023/05/08 04:22:43;;;;;;;2.87;2.20;;;;;;;13.69;86.12;95753.97;4337934;32;20194;-59
2023/05/08 04:25:13;;;;;;;2.20;2.10;;;;;;;13.74;86.10;95761.84;4348988;32;20231;-59
2023/05/08 04:27:40;;;;;;;3.60;3.27;;;;;;;13.83;85.79;95753.13;4324893;32;20198;-59
2023/05/08 04:30:07;;;;;;;2.40;2.30;;;;;;;13.93;85.43;95764.34;4360551;32;20323;-59
2023/05/08 04:32:34;;;;;;;2.00;1.90;;;;;;;13.94;85.31;95765.13;4346839;32;20201;-59
2023/05/08 04:34:59;;;;;;;3.23;2.93;;;;;;;13.81;85.57;95765.97;4358257;32;20232;-59
2023/05/08 04:37:27;;;;;;;4.07;3.20;;;;;;;13.91;85.11;95771.09;4348033;32;20254;-59
2023/05/08 04:39:52;;;;;;;2.57;2.47;;;;;;;13.91;85.00;95763.09;4335244;32;20201;-59
2023/05/08 04:42:18;;;;;;;2.83;2.73;;;;;;;13.81;85.15;95771.31;4361103;32;20233;-59
2023/05/08 04:44:44;;;;;;;2.13;2.03;;;;;;;13.98;84.71;95776.78;4337986;32;20213;-59
2023/05/08 04:47:09;;;;;;;2.37;2.23;;;;;;;14.06;83.82;95774.16;4337626;32;20279;-59
2023/05/08 04:49:36;;;;;;;3.40;3.20;;;;;;;13.76;84.67;95778.34;4357612;32;20280;-59
2023/05/08 04:52:01;;;;;;;1.43;1.43;;;;;;;13.64;85.18;95779.97;4359775;32;20219;-59
2023/05/08 04:54:26;;;;;;;2.23;2.13;;;;;;;13.54;85.54;95780.19;4340878;32;20213;-59
2023/05/08 04:56:52;;;;;;;2.23;2.13;;;;;;;13.40;86.08;95786.34;4357760;32;20196;-59
2023/05/08 04:59:17;;;;;;;4.87;2.23;;;;;;;13.31;86.59;95776.66;4355007;32;20193;-62
2023/05/08 05:01:45;;;;;;;2.77;2.57;;;;;;;13.24;86.54;95789.62;4358218;32;20200;-59
2023/05/08 05:04:11;;;;;;;3.23;3.03;;;;;;;13.23;87.05;95788.03;4349798;32;20200;-59
2023/05/08 05:06:36;;;;;;;2.43;2.33;;;;;;;13.30;87.24;95791.09;4361351;32;20209;-59
2023/05/08 05:09:02;;;;;;;2.43;2.33;;;;;;;13.41;87.22;95797.78;4357627;32;20194;-59
2023/05/08 05:11:27;;;;;;;4.07;3.80;;;;;;;13.39;86.43;95798.09;4357945;32;20189;-59
2023/05/08 05:13:53;;;;;;;2.40;2.30;;;;;;;13.42;86.82;95802.03;4343964;32;20190;-60
2023/05/08 05:16:18;;;;;;;2.67;2.50;;;;;;;13.36;87.18;95797.88;4337204;32;20236;-60
2023/05/08 05:18:43;;;;;;;4.33;3.93;;;;;;;13.38;86.42;95806.38;4344681;32;20188;-60
2023/05/08 05:21:10;;;;;;;2.37;2.27;;;;;;;13.40;86.27;95802.31;4345988;32;20189;-59
2023/05/08 05:23:35;;;;;;;3.10;2.90;;;;;;;13.20;86.77;95815.28;4359557;32;20280;-59
2023/05/08 05:26:01;;;;;;;2.17;2.07;;;;;;;13.09;87.35;95814.69;4338674;32;20215;-59
2023/05/08 05:28:26;;;;;;;3.33;3.07;;;;;;;13.02;87.93;95815.06;4353840;32;20193;-59
2023/05/08 05:30:52;;;;;;;4.30;3.00;;;;;;;13.07;87.61;95814.97;4322164;32;20205;-59
2023/05/08 05:33:17;;;;;;;7.73;2.37;;;;;;;13.06;87.89;95810.72;4349639;32;20216;-59
2023/05/08 05:35:43;;;;;;;3.03;2.83;;;;;;;13.12;87.40;95822.06;4362512;32;20184;-59
2023/05/08 05:38:08;;;;;;;2.60;2.50;;;;;;;13.12;87.25;95815.94;4339784;32;20212;-59
2023/05/08 05:40:34;;;;;;;2.63;2.47;;;;;;;13.18;87.10;95817.44;4345148;32;20254;-59
2023/05/08 05:43:00;;;;;;;1.93;1.83;;;;;;;13.17;86.93;95815.87;4359522;32;20247;-60
2023/05/08 05:45:25;;;;;;;3.33;3.03;;;;;;;13.07;87.41;95819.50;4361122;32;20181;-59
2023/05/08 05:47:52;;;;;;;11.00;3.93;;;;;;;13.16;87.48;95820.41;4343808;32;20211;-59
2023/05/08 05:50:20;;;;;;;3.27;3.17;;;;;;;13.32;87.17;95823.53;4328990;32;20212;-59
2023/05/08 05:52:45;;;;;;;2.37;2.27;;;;;;;13.32;86.56;95820.88;4361436;32;20212;-63
2023/05/08 05:55:11;;;;;;;3.37;3.17;;;;;;;13.31;86.89;95816.63;4363895;32;20196;-59
2023/05/08 05:57:36;;;;;;;3.57;2.90;;;;;;;13.30;87.17;95821.19;4361339;32;20249;-60
2023/05/08 06:00:03;;;;;;;7.03;3.80;;;;;;;13.26;87.01;95824.75;4342746;32;20224;-59
2023/05/08 06:02:28;;;;;;;4.80;2.13;;;;;;;13.35;87.16;95829.06;4340412;32;20208;-59
2023/05/08 06:04:53;;;;;;;1.43;1.43;;;;;;;13.45;85.94;95833.41;4342329;32;20201;-59
2023/05/08 06:07:20;;;;;;;1.83;1.83;;;;;;;13.33;86.29;95835.78;4346170;32;20251;-59
2023/05/08 06:09:46;;;;;;;2.90;2.80;;;;;;;13.30;86.77;95833.75;4302239;32;20214;-63
2023/05/08 06:12:11;;;;;;;2.13;2.03;;;;;;;13.39;85.67;95829.28;4332093;32;20257;-59
2023/05/08 06:14:36;;;;;;;2.87;2.77;;;;;;;13.37;86.34;95828.78;4342826;32;20189;-60
2023/05/08 06:17:02;;;;;;;3.27;3.07;;;;;;;13.20;86.76;95837.38;4310577;32;20194;-60
2023/05/08 06:19:27;;;;;;;2.53;2.40;;;;;;;13.41;86.20;95840.44;4328430;32;20245;-59
2023/05/08 06:21:53;;;;;;;2.83;2.67;;;;;;;13.31;86.13;95837.97;4319471;32;20194;-60
2023/05/08 06:24:18;;;;;;;3.27;3.03;;;;;;;13.27;86.58;95831.66;4322679;32;20296;-60
2023/05/08 06:26:45;;;;;;;14.30;2.70;;;;;;;13.05;86.66;95841.09;4346361;32;20210;-60
2023/05/08 06:29:11;;;;;;;13.27;2.77;;;;;;;14.42;100.00;95835.50;4323694;32;20250;-60
2023/05/08 06:31:36;;;;;;;3.17;2.87;;;;;;;14.91;100.00;95835.62;4332251;32;20212;-60
2023/05/08 06:34:02;;;;;;;2.10;2.00;;;;;;;15.43;94.15;95836.56;4341536;32;20257;-60
2023/05/08 06:36:27;;;;;;;3.27;2.13;;;;;;;15.79;87.87;95836.38;4318232;32;20197;-60
2023/05/08 06:38:53;;;;;;;1.93;1.83;;;;;;;16.13;82.39;95838.25;4344309;32;20223;-60
2023/05/08 06:41:18;;;;;;;2.53;2.33;;;;;;;16.45;80.26;95835.06;4315262;32;20233;-60
2023/05/08 06:43:43;;;;;;;1.97;1.97;;;;;;;16.58;81.41;95845.94;4327436;32;20295;-60
2023/05/08 06:46:09;;;;;;;2.70;2.53;;;;;;;16.64;77.44;95845.47;4329932;32;20235;-60
2023/05/08 06:48:34;;;;;;;2.03;1.93;;;;;;;16.83;76.78;95839.78;4327135;32;20197;-60
2023/05/08 06:51:00;;;;;;;2.20;2.00;;;;;;;16.90;76.38;95845.41;4315349;33;20271;-60
2023/05/08 06:53:26;;;;;;;2.17;2.07;;;;;;;17.01;75.21;95849.31;4310107;32;20212;-60
2023/05/08 06:55:53;;;;;;;2.50;2.40;;;;;;;17.01;74.71;95845.84;4324419;32;20198;-60
2023/05/08 06:58:18;;;;;;;2.40;1.63;;;;;;;17.02;74.65;95853.56;4329998;32;20217;-60
2023/05/08 07:00:43;;;;;;;2.37;2.27;;;;;;;17.02;76.44;95845.53;4326782;32;20209;-60
2023/05/08 07:03:09;;;;;;;3.53;2.10;;;;;;;16.98;75.52;95857.22;4334572;32;20224;-60
2023/05/08 07:05:34;;;;;;;2.30;2.20;;;;;;;16.89;79.69;95848.41;4359361;32;20228;-60
2023/05/08 07:07:59;;;;;;;2.07;1.97;;;;;;;16.71;81.17;95855.69;4354741;32;20255;-60
2023/05/08 07:10:25;;;;;;;3.00;2.90;;;;;;;15.25;78.71;95865.13;4337282;32;20219;-59
2023/05/08 07:12:50;;;;;;;2.13;2.03;;;;;;;14.59;81.88;95863.41;4344473;32;20192;-59
2023/05/08 07:15:16;;;;;;;2.17;2.07;;;;;;;13.88;84.52;95865.03;4356255;32;20212;-61
2023/05/08 07:17:41;;;;;;;2.13;2.03;;;;;;;13.19;86.89;95869.66;4360683;32;20189;-57
2023/05/08 07:20:07;;;;;;;2.50;2.40;;;;;;;13.32;87.36;95864.31;4341334;32;20204;-60
2023/05/08 07:22:33;;;;;;;2.73;2.53;;;;;;;13.77;85.25;95857.25;4345493;32;20185;-60
2023/05/08 07:24:58;;;;;;;3.23;2.67;;;;;;;13.74;85.59;95857.84;4356563;32;20200;-60
2023/05/08 07:27:25;;;;;;;2.37;2.27;;;;;;;13.83;85.00;95865.16;4355154;32;20193;-60
2023/05/08 07:29:52;;;;;;;19.20;3.37;;;;;;;13.86;84.65;95864.53;4340875;32;20292;-59
2023/05/08 07:32:17;;;;;;;2.17;2.10;;;;;;;13.88;84.61;95862.37;4358716;32;20203;-58
2023/05/08 07:34:42;;;;;;;3.13;2.93;;;;;;;13.90;84.34;95866.31;4355729;32;20189;-60
2023/05/08 07:37:08;;;;;;;1.73;1.70;;;;;;;14.03;83.66;95872.69;4354701;32;20291;-58
2023/05/08 07:39:33;;;;;;;2.80;2.70;;;;;;;14.09;83.40;95869.63;4339431;32;20220;-60
2023/05/08 07:41:59;;;;;;;2.37;2.27;;;;;;;13.87;83.96;95876.78;4353067;32;20192;-61
2023/05/08 07:44:24;;;;;;;4.53;2.50;;;;;;;14.13;83.77;95869.03;4358462;32;20202;-61
2023/05/08 07:46:49;;;;;;;3.13;2.93;;;;;;;14.21;83.21;95870.94;4354272;32;20288;-60
2023/05/08 07:49:15;;;;;;;3.20;2.97;;;;;;;14.24;82.18;95875.69;4351134;32;20193;-60
2023/05/08 07:51:40;;;;;;;4.63;2.97;;;;;;;14.25;82.03;95880.72;4343522;32;20258;-63
2023/05/08 07:54:05;;;;;;;2.67;2.57;;;;;;;14.26;81.32;95874.31;4343782;32;20367;-59
2023/05/08 07:56:31;;;;;;;2.13;2.03;;;;;;;14.28;81.28;95882.00;4343494;32;20193;-60
2023/05/08 07:58:56;;;;;;;2.53;2.43;;;;;;;14.13;81.53;95869.81;4340306;32;20231;-60
2023/05/08 08:01:22;;;;;;;2.57;2.47;;;;;;;13.99;82.61;95877.84;4335803;32;20197;-60
2023/05/08 08:03:47;;;;;;;3.97;3.70;;;;;;;14.07;82.22;95866.47;4339702;32;20190;-60
2023/05/08 08:06:13;;;;;;;1.90;1.80;;;;;;;14.31;82.50;95868.06;4356455;32;20193;-60
2023/05/08 08:08:38;;;;;;;4.07;2.70;;;;;;;14.43;81.55;95869.13;4343338;32;20244;-60
2023/05/08 08:11:04;;;;;;;2.53;2.43;;;;;;;14.61;81.04;95877.22;4353275;32;20204;-60
2023/05/08 08:13:31;;;;;;;2.50;2.40;;;;;;;14.68;80.25;95880.28;4345689;32;20209;-60
2023/05/08 08:15:57;;;;;;;1.50;1.50;;;;;;;14.80;81.23;95869.81;4353987;32;20189;-61
2023/05/08 08:18:22;;;;;;;2.53;2.43;;;;;;;15.05;79.95;95873.72;4355161;32;20200;-61
2023/05/08 08:20:47;;;;;;;2.67;2.47;;;;;;;15.26;78.85;95874.75;4344851;32;20208;-59
2023/05/08 08:23:13;;;;;;;4.30;2.93;;;;;;;15.40;78.00;95879.97;4333154;32;20189;-59
2023/05/08 08:25:38;;;;;;;3.40;3.20;;;;;;;15.19;77.72;95873.59;4340456;32;20244;-59
2023/05/08 08:28:03;;;;;;;3.00;2.80;;;;;;;15.02;77.58;95871.63;4326640;32;20189;-57
2023/05/08 08:30:29;;;;;;;1.90;1.80;;;;;;;15.12;78.82;95876.72;4350896;32;20184;-59
2023/05/08 08:32:54;;;;;;;1.67;1.67;;;;;;;15.27;78.55;95875.53;4333189;32;20212;-59
2023/05/08 08:35:20;;;;;;;2.50;2.40;;;;;;;15.13;77.80;95872.97;4348791;32;20232;-60
2023/05/08 08:37:45;;;;;;;3.00;2.80;;;;;;;15.30;77.78;95881.03;4362248;32;20189;-60
2023/05/08 08:40:11;;;;;;;2.47;2.27;;;;;;;15.29;77.77;95878.69;4362874;32;20196;-59
2023/05/08 08:42:36;;;;;;;3.17;2.97;;;;;;;15.41;77.46;95881.53;4360846;32;20185;-61
2023/05/08 08:45:02;;;;;;;3.10;2.93;;;;;;;15.54;76.30;95879.88;4341198;32;20223;-59
2023/05/08 08:47:28;;;;;;;2.53;2.33;;;;;;;15.50;76.73;95876.22;4357660;32;20185;-60
2023/05/08 08:49:57;;;;;;;33.17;2.23;;;;;;;15.42;77.04;95877.78;4347945;32;20212;-60
2023/05/08 08:52:44;;;;;;;2.67;2.57;;;;;;;15.46;76.42;95881.41;4335504;32;20198;-60
2023/05/08 08:55:13;;;;;;;2.10;2.00;;;;;;;15.38;76.81;95872.25;4346186;32;20197;-60
2023/05/08 08:57:53;;;;;;;2.67;2.47;;;;;;;15.56;76.80;95869.69;4344278;32;20185;-60
2023/05/08 09:00:22;;;;;;;3.00;2.80;;;;;;;15.52;76.43;95871.38;4333588;32;20204;-60
2023/05/08 09:02:48;;;;;;;2.03;1.93;;;;;;;15.69;78.15;95869.53;4356823;32;20201;-60
2023/05/08 09:05:14;;;;;;;2.40;2.30;;;;;;;15.73;75.44;95867.81;4351625;32;20216;-60
2023/05/08 09:07:40;;;;;;;2.13;2.03;;;;;;;15.81;75.63;95869.72;4356369;32;20275;-60
2023/05/08 09:10:06;;;;;;;2.93;2.73;;;;;;;15.51;75.34;95869.78;4323984;32;20268;-60
2023/05/08 09:12:32;;;;;;;4.17;3.37;;;;;;;15.52;76.09;95872.16;4348212;32;20212;-60
2023/05/08 09:14:57;;;;;;;3.13;2.93;;;;;;;15.84;76.84;95867.50;4336358;32;20205;-60
2023/05/08 09:17:23;;;;;;;3.37;3.10;;;;;;;15.81;76.33;95869.72;4347461;32;20196;-61
2023/05/08 09:19:48;;;;;;;2.30;2.20;;;;;;;15.85;75.18;95877.13;4362665;32;20207;-60
2023/05/08 09:22:14;;;;;;;2.80;2.60;;;;;;;15.72;76.04;95873.50;4347894;32;20212;-60
2023/05/08 09:24:59;;;;;;;4.03;3.47;;;;;;;15.80;75.28;95868.13;4347202;32;20235;-60
2023/05/08 09:27:26;;;;;;;4.30;2.70;;;;;;;15.69;76.37;95869.53;4337535;32;20235;-60
2023/05/08 09:30:05;;;;;;;3.03;2.60;;;;;;;15.57;76.92;95877.41;4343790;32;20197;-60
2023/05/08 09:32:32;;;;;;;2.77;2.67;;;;;;;15.69;76.81;95868.75;4348172;32;20289;-60
2023/05/08 09:34:58;;;;;;;2.43;2.33;;;;;;;15.68;76.86;95875.22;4359622;32;20197;-60
2023/05/08 09:37:25;;;;;;;4.03;3.73;;;;;;;15.61;76.14;95875.66;4352436;32;20201;-60
2023/05/08 09:39:50;;;;;;;5.13;4.13;;;;;;;15.60;76.20;95875.97;4346918;32;20199;-59
2023/05/08 09:42:16;;;;;;;3.50;3.20;;;;;;;15.44;77.29;95870.22;4356789;32;20197;-62
2023/05/08 09:44:48;;;;;;;2.90;2.70;;;;;;;15.46;77.48;95882.19;4344493;32;20233;-59
2023/05/08 09:47:22;;;;;;;5.57;3.53;;;;;;;15.48;77.12;95876.53;4351940;32;20255;-59
2023/05/08 09:50:01;;;;;;;5.00;4.30;;;;;;;15.41;78.36;95879.66;4333124;32;20196;-61
2023/05/08 09:52:28;;;;;;;4.57;4.27;;;;;;;15.39;77.39;95879.19;4357391;32;20238;-59
2023/05/08 09:54:58;;;;;;;3.03;2.93;;;;;;;15.56;77.24;95878.50;4345147;32;20192;-59
2023/05/08 09:57:26;;;;;;;4.43;3.43;;;;;;;15.66;76.98;95878.19;4360913;32;20193;-59
2023/05/08 10:00:14;;;;;;;3.97;3.43;;;;;;;15.72;76.78;95876.94;4345708;32;20185;-59
2023/05/08 10:02:52;;;;;;;5.70;3.37;;;;;;;15.90;76.62;95887.69;4356503;32;20252;-60
2023/05/08 10:05:30;;;;;;;3.00;2.80;;;;;;;16.03;76.88;95876.81;4328476;32;20196;-59
2023/05/08 10:07:56;;;;;;;5.00;4.67;;;;;;;16.15;76.29;95873.53;4354636;32;20194;-59
2023/05/08 10:10:26;;;;;;;3.70;3.50;;;;;;;16.02;76.17;95872.56;4361210;32;20229;-60
2023/05/08 10:12:53;;;;;;;4.43;4.13;;;;;;;16.19;76.06;95873.69;4343978;32;20209;-60
2023/05/08 10:15:30;;;;;;;4.30;4.00;;;;;;;16.26;75.18;95866.75;4337520;32;20193;-59
2023/05/08 10:18:01;;;;;;;5.10;4.70;;;;;;;16.31;75.05;95869.28;4350181;32;20238;-59
2023/05/08 10:20:29;;;;;;;2.93;2.73;;;;;;;16.31;74.83;95865.81;4344884;32;20185;-59
2023/05/08 10:22:56;;;;;;;3.50;3.30;;;;;;;16.36;74.61;95868.34;4348298;32;20193;-60
2023/05/08 10:25:24;;;;;;;3.57;3.37;;;;;;;16.35;74.60;95872.91;4346696;32;20237;-60
2023/05/08 10:28:04;;;;;;;4.33;4.00;;;;;;;16.36;74.36;95869.13;4358482;32;20216;-59
2023/05/08 10:30:30;;;;;;;7.43;4.17;;;;;;;16.33;74.48;95869.75;4359241;32;20261;-60
2023/05/08 10:32:58;;;;;;;3.90;3.70;;;;;;;16.56;74.31;95872.25;4333999;32;20233;-60
2023/05/08 10:35:24;;;;;;;4.67;4.30;;;;;;;16.35;74.95;95870.22;4341684;32;20215;-59
2023/05/08 10:37:50;;;;;;;3.50;3.33;;;;;;;16.39;74.41;95868.50;4360111;32;20207;-59
2023/05/08 10:40:17;;;;;;;4.30;4.10;;;;;;;16.40;74.71;95875.44;4350152;32;20188;-59
2023/05/08 10:42:44;;;;;;;4.47;4.17;;;;;;;16.46;74.63;95862.66;4361229;32;20244;-60
2023/05/08 10:45:10;;;;;;;3.93;3.70;;;;;;;16.64;74.26;95863.44;4337677;32;20220;-60
2023/05/08 10:47:59;;;;;;;6.20;4.90;;;;;;;16.67;73.83;95868.16;4355365;32;20325;-59
2023/05/08 10:50:39;;;;;;;5.00;4.70;;;;;;;16.57;74.33;95855.06;4349913;32;20215;-60
2023/05/08 10:53:12;;;;;;;12.17;3.93;;;;;;;16.63;74.55;95859.97;4332549;32;20232;-60
2023/05/08 10:55:43;;;;;;;4.50;4.23;;;;;;;16.74;73.73;95853.19;4333860;32;20189;-60
2023/05/08 10:58:14;;;;;;;5.33;4.93;;;;;;;16.76;73.63;95858.22;4355100;32;20207;-59
2023/05/08 11:00:51;;;;;;;5.50;5.20;;;;;;;16.61;73.77;95856.81;4340389;32;20197;-60
2023/05/08 11:03:22;;;;;;;3.80;3.50;;;;;;;16.65;73.97;95848.94;4338225;32;20224;-60
2023/05/08 11:05:50;;;;;;;5.13;4.67;;;;;;;16.62;74.87;95857.59;4358488;32;20185;-60
2023/05/08 11:08:23;;;;;;;3.83;3.63;;;;;;;16.63;74.83;95857.28;4354627;32;20200;-60
2023/05/08 11:11:00;;;;;;;4.03;3.83;;;;;;;16.66;74.57;95850.50;4344717;32;20211;-59
2023/05/08 11:13:54;;;;;;;4.70;4.40;;;;;;;16.79;74.72;95854.91;4350646;32;20193;-60
2023/05/08 11:17:01;;;;;;;5.23;4.93;;;;;;;16.92;73.88;95856.59;4324836;32;20193;-59
2023/05/08 11:19:27;;;;;;;5.10;4.70;;;;;;;16.78;73.67;95856.81;4356493;32;20260;-59
2023/05/08 11:22:11;;;;;;;5.80;5.40;;;;;;;16.81;74.07;95858.06;4347842;32;20184;-59
2023/05/08 11:24:46;;;;;;;3.63;3.43;;;;;;;16.59;74.80;95850.19;4340789;32;20279;-59
2023/05/08 11:27:12;;;;;;;5.97;5.57;;;;;;;16.74;74.57;95850.50;4356974;32;20230;-58
2023/05/08 11:29:38;;;;;;;5.63;5.23;;;;;;;16.83;74.03;95847.81;4338593;32;20190;-58
2023/05/08 11:32:04;;;;;;;5.80;5.40;;;;;;;16.73;74.61;95851.59;4318486;32;20188;-59
2023/05/08 11:34:41;;;;;;;5.13;4.77;;;;;;;16.80;74.59;95849.22;4356974;32;20229;-58
2023/05/08 11:37:11;;;;;;;5.73;4.53;;;;;;;16.78;74.28;95850.66;4351828;32;20272;-59
2023/05/08 11:39:36;;;;;;;4.60;4.30;;;;;;;16.75;74.47;95845.94;4347612;32;20284;-58
2023/05/08 11:42:23;;;;;;;4.33;4.03;;;;;;;16.72;74.22;95838.53;4358319;32;20200;-59
2023/05/08 11:44:59;;;;;;;4.67;4.33;;;;;;;16.81;74.03;95839.31;4343625;32;20189;-59